sensor_id;sensor_type;location;lat;lon;timestamp;P1;durP1;ratioP1;P2;durP2;ratioP2
59458;SDS011;45269;43.568;22.244;2023-07-13T00:01:28;8.02;;;5.20;;
59458;SDS011;45269;43.568;22.244;2023-07-13T00:03:54;10.18;;;7.55;;
59458;SDS011;45269;43.568;22.244;2023-07-13T00:06:19;8.63;;;6.65;;
59458;SDS011;45269;43.568;22.244;2023-07-13T00:08:45;9.18;;;6.85;;
59458;SDS011;45269;43.568;22.244;2023-07-13T00:11:11;9.80;;;6.78;;
59458;SDS011;45269;43.568;22.244;2023-07-13T00:13:36;8.07;;;7.28;;
59458;SDS011;45269;43.568;22.244;2023-07-13T00:16:04;7.68;;;6.40;;
59458;SDS011;45269;43.568;22.244;2023-07-13T00:18:30;8.85;;;7.35;;
59458;SDS011;45269;43.568;22.244;2023-07-13T00:20:55;7.20;;;6.53;;
59458;SDS011;45269;43.568;22.244;2023-07-13T00:23:21;7.40;;;6.63;;
59458;SDS011;45269;43.568;22.244;2023-07-13T00:25:46;10.68;;;7.60;;
59458;SDS011;45269;43.568;22.244;2023-07-13T00:28:12;10.93;;;7.10;;
59458;SDS011;45269;43.568;22.244;2023-07-13T00:30:37;9.30;;;8.30;;
59458;SDS011;45269;43.568;22.244;2023-07-13T00:33:03;12.48;;;7.30;;
59458;SDS011;45269;43.568;22.244;2023-07-13T00:35:30;7.95;;;6.50;;
59458;SDS011;45269;43.568;22.244;2023-07-13T00:37:55;7.95;;;6.22;;
59458;SDS011;45269;43.568;22.244;2023-07-13T00:40:21;5.95;;;5.43;;
59458;SDS011;45269;43.568;22.244;2023-07-13T00:42:46;7.90;;;5.50;;
59458;SDS011;45269;43.568;22.244;2023-07-13T00:47:37;9.85;;;6.35;;
59458;SDS011;45269;43.568;22.244;2023-07-13T00:50:03;9.30;;;5.72;;
59458;SDS011;45269;43.568;22.244;2023-07-13T00:52:30;7.35;;;6.00;;
59458;SDS011;45269;43.568;22.244;2023-07-13T00:54:55;8.02;;;6.40;;
59458;SDS011;45269;43.568;22.244;2023-07-13T00:57:21;6.68;;;6.00;;
59458;SDS011;45269;43.568;22.244;2023-07-13T00:59:48;8.60;;;6.10;;
59458;SDS011;45269;43.568;22.244;2023-07-13T01:02:14;6.72;;;6.03;;
59458;SDS011;45269;43.568;22.244;2023-07-13T01:04:39;7.85;;;6.50;;
59458;SDS011;45269;43.568;22.244;2023-07-13T01:07:05;11.18;;;8.55;;
59458;SDS011;45269;43.568;22.244;2023-07-13T01:09:31;11.35;;;9.55;;
59458;SDS011;45269;43.568;22.244;2023-07-13T01:11:57;14.13;;;9.50;;
59458;SDS011;45269;43.568;22.244;2023-07-13T01:14:22;10.48;;;8.60;;
59458;SDS011;45269;43.568;22.244;2023-07-13T01:16:47;10.93;;;8.35;;
59458;SDS011;45269;43.568;22.244;2023-07-13T01:19:33;8.52;;;7.20;;
59458;SDS011;45269;43.568;22.244;2023-07-13T01:22:08;8.40;;;6.93;;
59458;SDS011;45269;43.568;22.244;2023-07-13T01:24:34;9.40;;;7.10;;
59458;SDS011;45269;43.568;22.244;2023-07-13T01:27:00;8.20;;;7.13;;
59458;SDS011;45269;43.568;22.244;2023-07-13T01:29:25;7.82;;;6.68;;
59458;SDS011;45269;43.568;22.244;2023-07-13T01:31:50;11.57;;;6.25;;
59458;SDS011;45269;43.568;22.244;2023-07-13T01:34:16;7.57;;;6.60;;
59458;SDS011;45269;43.568;22.244;2023-07-13T01:36:42;9.00;;;6.78;;
59458;SDS011;45269;43.568;22.244;2023-07-13T01:39:07;9.65;;;7.72;;
59458;SDS011;45269;43.568;22.244;2023-07-13T01:41:32;11.77;;;7.80;;
59458;SDS011;45269;43.568;22.244;2023-07-13T01:43:58;8.88;;;6.97;;
59458;SDS011;45269;43.568;22.244;2023-07-13T01:46:23;9.35;;;7.15;;
59458;SDS011;45269;43.568;22.244;2023-07-13T01:48:48;13.52;;;7.43;;
59458;SDS011;45269;43.568;22.244;2023-07-13T01:51:15;12.98;;;7.60;;
59458;SDS011;45269;43.568;22.244;2023-07-13T01:53:40;8.23;;;6.85;;
59458;SDS011;45269;43.568;22.244;2023-07-13T01:56:05;9.52;;;6.93;;
59458;SDS011;45269;43.568;22.244;2023-07-13T01:58:31;8.32;;;7.18;;
59458;SDS011;45269;43.568;22.244;2023-07-13T02:00:56;7.40;;;6.32;;
59458;SDS011;45269;43.568;22.244;2023-07-13T02:03:21;9.90;;;6.63;;
59458;SDS011;45269;43.568;22.244;2023-07-13T02:05:47;7.25;;;5.95;;
59458;SDS011;45269;43.568;22.244;2023-07-13T02:08:12;8.98;;;6.53;;
59458;SDS011;45269;43.568;22.244;2023-07-13T02:10:37;7.65;;;6.22;;
59458;SDS011;45269;43.568;22.244;2023-07-13T02:13:06;7.60;;;6.72;;
59458;SDS011;45269;43.568;22.244;2023-07-13T02:15:32;10.38;;;7.35;;
59458;SDS011;45269;43.568;22.244;2023-07-13T02:17:57;8.05;;;6.60;;
59458;SDS011;45269;43.568;22.244;2023-07-13T02:20:23;8.85;;;6.55;;
59458;SDS011;45269;43.568;22.244;2023-07-13T02:22:49;9.57;;;7.03;;
59458;SDS011;45269;43.568;22.244;2023-07-13T02:25:14;9.80;;;6.60;;
59458;SDS011;45269;43.568;22.244;2023-07-13T02:27:40;9.30;;;6.47;;
59458;SDS011;45269;43.568;22.244;2023-07-13T02:30:05;9.15;;;6.63;;
59458;SDS011;45269;43.568;22.244;2023-07-13T02:32:31;8.45;;;6.45;;
59458;SDS011;45269;43.568;22.244;2023-07-13T02:34:57;7.40;;;6.63;;
59458;SDS011;45269;43.568;22.244;2023-07-13T02:37:22;8.05;;;6.13;;
59458;SDS011;45269;43.568;22.244;2023-07-13T02:39:47;8.13;;;6.95;;
59458;SDS011;45269;43.568;22.244;2023-07-13T02:42:13;8.05;;;6.22;;
59458;SDS011;45269;43.568;22.244;2023-07-13T02:44:38;8.88;;;6.72;;
59458;SDS011;45269;43.568;22.244;2023-07-13T02:47:03;9.48;;;7.05;;
59458;SDS011;45269;43.568;22.244;2023-07-13T02:49:29;6.95;;;5.90;;
59458;SDS011;45269;43.568;22.244;2023-07-13T02:51:54;8.40;;;5.97;;
59458;SDS011;45269;43.568;22.244;2023-07-13T02:54:19;8.63;;;6.60;;
59458;SDS011;45269;43.568;22.244;2023-07-13T02:56:45;10.35;;;6.88;;
59458;SDS011;45269;43.568;22.244;2023-07-13T02:59:10;10.30;;;6.78;;
59458;SDS011;45269;43.568;22.244;2023-07-13T03:01:37;7.72;;;6.45;;
59458;SDS011;45269;43.568;22.244;2023-07-13T03:04:03;10.98;;;7.50;;
59458;SDS011;45269;43.568;22.244;2023-07-13T03:06:30;7.70;;;6.32;;
59458;SDS011;45269;43.568;22.244;2023-07-13T03:08:56;7.93;;;7.10;;
59458;SDS011;45269;43.568;22.244;2023-07-13T03:11:21;7.47;;;6.78;;
59458;SDS011;45269;43.568;22.244;2023-07-13T03:13:47;8.52;;;6.78;;
59458;SDS011;45269;43.568;22.244;2023-07-13T03:16:13;9.88;;;6.57;;
59458;SDS011;45269;43.568;22.244;2023-07-13T03:18:40;7.88;;;6.53;;
59458;SDS011;45269;43.568;22.244;2023-07-13T03:21:06;7.53;;;6.03;;
59458;SDS011;45269;43.568;22.244;2023-07-13T03:23:31;7.72;;;5.43;;
59458;SDS011;45269;43.568;22.244;2023-07-13T03:26:07;6.65;;;5.72;;
59458;SDS011;45269;43.568;22.244;2023-07-13T03:28:33;7.45;;;6.38;;
59458;SDS011;45269;43.568;22.244;2023-07-13T03:31:00;8.68;;;6.07;;
59458;SDS011;45269;43.568;22.244;2023-07-13T03:33:25;8.00;;;6.57;;
59458;SDS011;45269;43.568;22.244;2023-07-13T03:35:50;9.30;;;6.38;;
59458;SDS011;45269;43.568;22.244;2023-07-13T03:38:16;10.48;;;6.50;;
59458;SDS011;45269;43.568;22.244;2023-07-13T03:40:42;8.05;;;6.53;;
59458;SDS011;45269;43.568;22.244;2023-07-13T03:43:07;8.32;;;6.63;;
59458;SDS011;45269;43.568;22.244;2023-07-13T03:45:33;10.43;;;6.90;;
59458;SDS011;45269;43.568;22.244;2023-07-13T03:47:58;16.50;;;6.78;;
59458;SDS011;45269;43.568;22.244;2023-07-13T03:50:23;10.73;;;6.22;;
59458;SDS011;45269;43.568;22.244;2023-07-13T03:52:49;10.45;;;8.23;;
59458;SDS011;45269;43.568;22.244;2023-07-13T03:55:14;9.25;;;7.68;;
59458;SDS011;45269;43.568;22.244;2023-07-13T03:57:39;11.20;;;8.70;;
59458;SDS011;45269;43.568;22.244;2023-07-13T04:00:06;12.23;;;8.32;;
59458;SDS011;45269;43.568;22.244;2023-07-13T04:02:31;9.23;;;6.88;;
59458;SDS011;45269;43.568;22.244;2023-07-13T04:04:57;12.13;;;7.72;;
59458;SDS011;45269;43.568;22.244;2023-07-13T04:07:22;10.05;;;7.00;;
59458;SDS011;45269;43.568;22.244;2023-07-13T04:09:47;11.45;;;7.63;;
59458;SDS011;45269;43.568;22.244;2023-07-13T04:12:13;9.70;;;7.72;;
59458;SDS011;45269;43.568;22.244;2023-07-13T04:14:39;8.88;;;7.40;;
59458;SDS011;45269;43.568;22.244;2023-07-13T04:17:04;9.35;;;8.00;;
59458;SDS011;45269;43.568;22.244;2023-07-13T04:19:30;11.10;;;6.97;;
59458;SDS011;45269;43.568;22.244;2023-07-13T04:21:55;8.88;;;7.03;;
59458;SDS011;45269;43.568;22.244;2023-07-13T04:24:20;10.65;;;8.45;;
59458;SDS011;45269;43.568;22.244;2023-07-13T04:26:46;8.40;;;7.43;;
59458;SDS011;45269;43.568;22.244;2023-07-13T04:29:11;13.07;;;8.98;;
59458;SDS011;45269;43.568;22.244;2023-07-13T04:31:36;14.68;;;10.60;;
59458;SDS011;45269;43.568;22.244;2023-07-13T04:34:02;8.30;;;6.38;;
59458;SDS011;45269;43.568;22.244;2023-07-13T04:36:28;13.25;;;7.85;;
59458;SDS011;45269;43.568;22.244;2023-07-13T04:38:53;9.65;;;7.88;;
59458;SDS011;45269;43.568;22.244;2023-07-13T04:41:19;11.60;;;8.30;;
59458;SDS011;45269;43.568;22.244;2023-07-13T04:43:45;10.00;;;7.35;;
59458;SDS011;45269;43.568;22.244;2023-07-13T04:46:11;11.80;;;9.00;;
59458;SDS011;45269;43.568;22.244;2023-07-13T04:48:37;13.45;;;7.97;;
59458;SDS011;45269;43.568;22.244;2023-07-13T04:51:03;12.15;;;8.60;;
59458;SDS011;45269;43.568;22.244;2023-07-13T04:53:29;11.50;;;8.25;;
59458;SDS011;45269;43.568;22.244;2023-07-13T04:55:55;12.30;;;9.05;;
59458;SDS011;45269;43.568;22.244;2023-07-13T04:58:21;11.30;;;7.80;;
59458;SDS011;45269;43.568;22.244;2023-07-13T05:00:46;13.48;;;8.93;;
59458;SDS011;45269;43.568;22.244;2023-07-13T05:03:12;14.18;;;8.00;;
59458;SDS011;45269;43.568;22.244;2023-07-13T05:05:37;16.17;;;7.70;;
59458;SDS011;45269;43.568;22.244;2023-07-13T05:08:02;10.02;;;6.78;;
59458;SDS011;45269;43.568;22.244;2023-07-13T05:10:28;9.98;;;6.35;;
59458;SDS011;45269;43.568;22.244;2023-07-13T05:12:53;7.85;;;6.78;;
59458;SDS011;45269;43.568;22.244;2023-07-13T05:15:20;7.45;;;6.00;;
59458;SDS011;45269;43.568;22.244;2023-07-13T05:17:46;9.13;;;6.25;;
59458;SDS011;45269;43.568;22.244;2023-07-13T05:20:12;10.27;;;6.28;;
59458;SDS011;45269;43.568;22.244;2023-07-13T05:22:37;9.18;;;6.25;;
59458;SDS011;45269;43.568;22.244;2023-07-13T05:25:06;10.13;;;6.15;;
59458;SDS011;45269;43.568;22.244;2023-07-13T05:29:57;7.20;;;6.17;;
59458;SDS011;45269;43.568;22.244;2023-07-13T05:32:22;6.47;;;5.60;;
59458;SDS011;45269;43.568;22.244;2023-07-13T05:34:48;10.82;;;6.07;;
59458;SDS011;45269;43.568;22.244;2023-07-13T05:37:13;9.60;;;5.57;;
59458;SDS011;45269;43.568;22.244;2023-07-13T05:39:38;7.22;;;5.05;;
59458;SDS011;45269;43.568;22.244;2023-07-13T05:42:04;7.60;;;5.38;;
59458;SDS011;45269;43.568;22.244;2023-07-13T05:44:30;7.65;;;5.57;;
59458;SDS011;45269;43.568;22.244;2023-07-13T05:46:55;11.65;;;5.65;;
59458;SDS011;45269;43.568;22.244;2023-07-13T05:49:21;8.75;;;5.72;;
59458;SDS011;45269;43.568;22.244;2023-07-13T05:51:47;8.57;;;5.50;;
59458;SDS011;45269;43.568;22.244;2023-07-13T05:54:12;12.52;;;6.00;;
59458;SDS011;45269;43.568;22.244;2023-07-13T05:56:38;7.60;;;5.70;;
59458;SDS011;45269;43.568;22.244;2023-07-13T05:59:03;7.95;;;5.85;;
59458;SDS011;45269;43.568;22.244;2023-07-13T06:01:29;6.15;;;5.35;;
59458;SDS011;45269;43.568;22.244;2023-07-13T06:03:54;9.48;;;5.40;;
59458;SDS011;45269;43.568;22.244;2023-07-13T06:06:20;7.53;;;5.65;;
59458;SDS011;45269;43.568;22.244;2023-07-13T06:08:45;8.43;;;5.53;;
59458;SDS011;45269;43.568;22.244;2023-07-13T06:11:15;10.35;;;5.63;;
59458;SDS011;45269;43.568;22.244;2023-07-13T06:13:40;8.27;;;5.68;;
59458;SDS011;45269;43.568;22.244;2023-07-13T06:16:06;7.40;;;5.72;;
59458;SDS011;45269;43.568;22.244;2023-07-13T06:18:35;8.15;;;5.65;;
59458;SDS011;45269;43.568;22.244;2023-07-13T06:21:05;10.20;;;5.53;;
59458;SDS011;45269;43.568;22.244;2023-07-13T06:23:30;6.18;;;5.30;;
59458;SDS011;45269;43.568;22.244;2023-07-13T06:25:56;8.85;;;5.38;;
59458;SDS011;45269;43.568;22.244;2023-07-13T06:28:21;6.38;;;4.78;;
59458;SDS011;45269;43.568;22.244;2023-07-13T06:30:46;10.90;;;5.18;;
59458;SDS011;45269;43.568;22.244;2023-07-13T06:33:12;7.28;;;6.30;;
59458;SDS011;45269;43.568;22.244;2023-07-13T06:35:37;9.07;;;5.82;;
59458;SDS011;45269;43.568;22.244;2023-07-13T06:38:02;10.98;;;6.57;;
59458;SDS011;45269;43.568;22.244;2023-07-13T06:40:28;8.75;;;5.78;;
59458;SDS011;45269;43.568;22.244;2023-07-13T06:42:55;10.15;;;6.15;;
59458;SDS011;45269;43.568;22.244;2023-07-13T06:45:21;9.20;;;5.45;;
59458;SDS011;45269;43.568;22.244;2023-07-13T06:47:46;9.55;;;5.45;;
59458;SDS011;45269;43.568;22.244;2023-07-13T06:50:11;9.05;;;5.57;;
59458;SDS011;45269;43.568;22.244;2023-07-13T06:52:37;9.85;;;6.05;;
59458;SDS011;45269;43.568;22.244;2023-07-13T06:55:02;7.65;;;5.45;;
59458;SDS011;45269;43.568;22.244;2023-07-13T06:57:28;7.18;;;4.93;;
59458;SDS011;45269;43.568;22.244;2023-07-13T06:59:53;7.65;;;5.57;;
59458;SDS011;45269;43.568;22.244;2023-07-13T07:02:18;8.88;;;6.18;;
59458;SDS011;45269;43.568;22.244;2023-07-13T07:04:44;12.05;;;5.60;;
59458;SDS011;45269;43.568;22.244;2023-07-13T07:07:09;12.50;;;5.35;;
59458;SDS011;45269;43.568;22.244;2023-07-13T07:09:34;8.70;;;5.50;;
59458;SDS011;45269;43.568;22.244;2023-07-13T07:12:00;8.95;;;5.88;;
59458;SDS011;45269;43.568;22.244;2023-07-13T07:14:25;11.60;;;5.40;;
59458;SDS011;45269;43.568;22.244;2023-07-13T07:16:51;8.02;;;5.00;;
59458;SDS011;45269;43.568;22.244;2023-07-13T07:19:16;11.15;;;5.80;;
59458;SDS011;45269;43.568;22.244;2023-07-13T07:21:41;8.70;;;5.18;;
59458;SDS011;45269;43.568;22.244;2023-07-13T07:24:07;11.00;;;5.55;;
59458;SDS011;45269;43.568;22.244;2023-07-13T07:26:32;12.02;;;5.35;;
59458;SDS011;45269;43.568;22.244;2023-07-13T07:28:58;13.27;;;6.60;;
59458;SDS011;45269;43.568;22.244;2023-07-13T07:31:23;9.93;;;5.90;;
59458;SDS011;45269;43.568;22.244;2023-07-13T07:33:48;8.90;;;5.15;;
59458;SDS011;45269;43.568;22.244;2023-07-13T07:36:15;11.13;;;5.25;;
59458;SDS011;45269;43.568;22.244;2023-07-13T07:38:41;8.77;;;5.43;;
59458;SDS011;45269;43.568;22.244;2023-07-13T07:41:06;9.20;;;5.93;;
59458;SDS011;45269;43.568;22.244;2023-07-13T07:43:32;7.65;;;6.80;;
59458;SDS011;45269;43.568;22.244;2023-07-13T07:45:57;8.38;;;5.47;;
59458;SDS011;45269;43.568;22.244;2023-07-13T07:48:23;13.52;;;5.63;;
59458;SDS011;45269;43.568;22.244;2023-07-13T07:50:48;11.90;;;6.53;;
59458;SDS011;45269;43.568;22.244;2023-07-13T07:53:13;10.45;;;5.82;;
59458;SDS011;45269;43.568;22.244;2023-07-13T07:55:39;12.18;;;5.78;;
59458;SDS011;45269;43.568;22.244;2023-07-13T07:58:04;9.63;;;5.28;;
59458;SDS011;45269;43.568;22.244;2023-07-13T08:00:30;7.70;;;5.07;;
59458;SDS011;45269;43.568;22.244;2023-07-13T08:02:57;15.00;;;5.63;;
59458;SDS011;45269;43.568;22.244;2023-07-13T08:05:22;8.10;;;5.00;;
59458;SDS011;45269;43.568;22.244;2023-07-13T08:07:48;9.32;;;5.57;;
59458;SDS011;45269;43.568;22.244;2023-07-13T08:10:13;10.15;;;5.57;;
59458;SDS011;45269;43.568;22.244;2023-07-13T08:12:39;8.27;;;5.13;;
59458;SDS011;45269;43.568;22.244;2023-07-13T08:15:05;9.43;;;4.97;;
59458;SDS011;45269;43.568;22.244;2023-07-13T08:17:31;11.73;;;7.30;;
59458;SDS011;45269;43.568;22.244;2023-07-13T08:19:56;9.57;;;5.03;;
59458;SDS011;45269;43.568;22.244;2023-07-13T08:22:21;11.32;;;5.38;;
59458;SDS011;45269;43.568;22.244;2023-07-13T08:24:47;12.63;;;5.13;;
59458;SDS011;45269;43.568;22.244;2023-07-13T08:27:20;9.75;;;5.30;;
59458;SDS011;45269;43.568;22.244;2023-07-13T08:29:45;12.63;;;5.00;;
59458;SDS011;45269;43.568;22.244;2023-07-13T08:32:12;7.35;;;4.90;;
59458;SDS011;45269;43.568;22.244;2023-07-13T08:34:37;6.50;;;5.40;;
59458;SDS011;45269;43.568;22.244;2023-07-13T08:37:03;7.65;;;4.60;;
59458;SDS011;45269;43.568;22.244;2023-07-13T08:39:29;10.07;;;4.72;;
59458;SDS011;45269;43.568;22.244;2023-07-13T08:41:56;7.88;;;4.93;;
59458;SDS011;45269;43.568;22.244;2023-07-13T08:47:07;7.65;;;4.97;;
59458;SDS011;45269;43.568;22.244;2023-07-13T08:49:34;9.48;;;4.88;;
59458;SDS011;45269;43.568;22.244;2023-07-13T08:52:01;8.93;;;5.00;;
59458;SDS011;45269;43.568;22.244;2023-07-13T08:54:28;9.75;;;5.00;;
59458;SDS011;45269;43.568;22.244;2023-07-13T08:56:54;7.05;;;4.72;;
59458;SDS011;45269;43.568;22.244;2023-07-13T08:59:25;7.45;;;4.85;;
59458;SDS011;45269;43.568;22.244;2023-07-13T09:04:18;6.38;;;4.70;;
59458;SDS011;45269;43.568;22.244;2023-07-13T09:11:52;6.13;;;4.50;;
59458;SDS011;45269;43.568;22.244;2023-07-13T09:17:09;13.75;;;5.32;;
59458;SDS011;45269;43.568;22.244;2023-07-13T09:19:35;7.43;;;4.78;;
59458;SDS011;45269;43.568;22.244;2023-07-13T09:22:02;8.20;;;4.85;;
59458;SDS011;45269;43.568;22.244;2023-07-13T09:24:29;8.30;;;4.90;;
59458;SDS011;45269;43.568;22.244;2023-07-13T09:26:56;9.63;;;4.25;;
59458;SDS011;45269;43.568;22.244;2023-07-13T09:29:29;7.55;;;4.57;;
59458;SDS011;45269;43.568;22.244;2023-07-13T09:31:55;6.88;;;4.55;;
59458;SDS011;45269;43.568;22.244;2023-07-13T09:34:23;9.98;;;4.70;;
59458;SDS011;45269;43.568;22.244;2023-07-13T09:36:49;10.20;;;4.63;;
59458;SDS011;45269;43.568;22.244;2023-07-13T09:39:15;7.90;;;4.35;;
59458;SDS011;45269;43.568;22.244;2023-07-13T09:44:28;7.27;;;4.33;;
59458;SDS011;45269;43.568;22.244;2023-07-13T09:46:56;6.90;;;4.47;;
59458;SDS011;45269;43.568;22.244;2023-07-13T09:49:29;8.68;;;4.47;;
59458;SDS011;45269;43.568;22.244;2023-07-13T09:51:58;11.82;;;4.97;;
59458;SDS011;45269;43.568;22.244;2023-07-13T09:54:25;8.60;;;5.05;;
59458;SDS011;45269;43.568;22.244;2023-07-13T09:56:55;9.10;;;4.45;;
59458;SDS011;45269;43.568;22.244;2023-07-13T09:59:21;8.02;;;4.75;;
59458;SDS011;45269;43.568;22.244;2023-07-13T10:01:49;7.17;;;4.83;;
59458;SDS011;45269;43.568;22.244;2023-07-13T10:04:17;6.35;;;4.45;;
59458;SDS011;45269;43.568;22.244;2023-07-13T10:06:43;8.20;;;4.40;;
59458;SDS011;45269;43.568;22.244;2023-07-13T10:09:09;7.50;;;4.63;;
59458;SDS011;45269;43.568;22.244;2023-07-13T10:11:35;10.48;;;4.82;;
59458;SDS011;45269;43.568;22.244;2023-07-13T10:14:13;6.80;;;4.70;;
59458;SDS011;45269;43.568;22.244;2023-07-13T10:16:39;5.57;;;4.30;;
59458;SDS011;45269;43.568;22.244;2023-07-13T10:19:26;7.75;;;4.07;;
59458;SDS011;45269;43.568;22.244;2023-07-13T10:21:56;6.97;;;4.93;;
59458;SDS011;45269;43.568;22.244;2023-07-13T10:24:26;11.13;;;5.90;;
59458;SDS011;45269;43.568;22.244;2023-07-13T10:29:17;7.23;;;4.80;;
59458;SDS011;45269;43.568;22.244;2023-07-13T10:31:44;14.32;;;6.00;;
59458;SDS011;45269;43.568;22.244;2023-07-13T10:34:10;10.38;;;5.00;;
59458;SDS011;45269;43.568;22.244;2023-07-13T10:36:43;7.05;;;4.68;;
59458;SDS011;45269;43.568;22.244;2023-07-13T10:39:13;9.35;;;5.03;;
59458;SDS011;45269;43.568;22.244;2023-07-13T10:41:40;11.45;;;6.00;;
59458;SDS011;45269;43.568;22.244;2023-07-13T10:44:09;8.77;;;5.35;;
59458;SDS011;45269;43.568;22.244;2023-07-13T10:46:37;9.07;;;5.30;;
59458;SDS011;45269;43.568;22.244;2023-07-13T10:49:04;9.20;;;5.30;;
59458;SDS011;45269;43.568;22.244;2023-07-13T10:51:30;7.05;;;5.00;;
59458;SDS011;45269;43.568;22.244;2023-07-13T10:56:52;5.30;;;4.80;;
59458;SDS011;45269;43.568;22.244;2023-07-13T10:59:20;8.75;;;5.55;;
59458;SDS011;45269;43.568;22.244;2023-07-13T11:01:53;6.80;;;4.45;;
59458;SDS011;45269;43.568;22.244;2023-07-13T11:04:19;10.27;;;5.50;;
59458;SDS011;45269;43.568;22.244;2023-07-13T11:06:46;13.48;;;5.50;;
59458;SDS011;45269;43.568;22.244;2023-07-13T11:09:36;6.95;;;4.93;;
59458;SDS011;45269;43.568;22.244;2023-07-13T11:12:02;19.23;;;6.25;;
59458;SDS011;45269;43.568;22.244;2023-07-13T11:14:41;8.75;;;5.30;;
59458;SDS011;45269;43.568;22.244;2023-07-13T11:19:51;7.47;;;5.65;;
59458;SDS011;45269;43.568;22.244;2023-07-13T11:22:24;7.88;;;5.72;;
59458;SDS011;45269;43.568;22.244;2023-07-13T11:27:37;10.00;;;6.25;;
59458;SDS011;45269;43.568;22.244;2023-07-13T11:32:49;12.27;;;6.75;;
59458;SDS011;45269;43.568;22.244;2023-07-13T11:35:23;12.32;;;6.80;;
59458;SDS011;45269;43.568;22.244;2023-07-13T11:37:50;9.00;;;6.35;;
59458;SDS011;45269;43.568;22.244;2023-07-13T11:40:16;12.77;;;6.95;;
59458;SDS011;45269;43.568;22.244;2023-07-13T11:42:41;13.20;;;6.90;;
59458;SDS011;45269;43.568;22.244;2023-07-13T11:45:18;18.27;;;6.85;;
59458;SDS011;45269;43.568;22.244;2023-07-13T11:47:44;8.93;;;7.03;;
59458;SDS011;45269;43.568;22.244;2023-07-13T11:50:17;10.02;;;6.22;;
59458;SDS011;45269;43.568;22.244;2023-07-13T11:52:43;10.90;;;6.15;;
59458;SDS011;45269;43.568;22.244;2023-07-13T11:55:13;10.02;;;6.68;;
59458;SDS011;45269;43.568;22.244;2023-07-13T11:57:47;7.85;;;6.50;;
59458;SDS011;45269;43.568;22.244;2023-07-13T12:00:18;8.80;;;6.32;;
59458;SDS011;45269;43.568;22.244;2023-07-13T12:02:48;10.43;;;5.78;;
59458;SDS011;45269;43.568;22.244;2023-07-13T12:07:40;17.37;;;7.47;;
59458;SDS011;45269;43.568;22.244;2023-07-13T12:12:34;10.13;;;7.72;;
59458;SDS011;45269;43.568;22.244;2023-07-13T12:15:00;11.05;;;8.80;;
59458;SDS011;45269;43.568;22.244;2023-07-13T12:17:25;11.15;;;8.75;;
59458;SDS011;45269;43.568;22.244;2023-07-13T12:19:51;13.77;;;9.27;;
59458;SDS011;45269;43.568;22.244;2023-07-13T12:22:17;12.00;;;8.20;;
59458;SDS011;45269;43.568;22.244;2023-07-13T12:24:44;10.75;;;9.40;;
59458;SDS011;45269;43.568;22.244;2023-07-13T12:27:18;13.40;;;8.90;;
59458;SDS011;45269;43.568;22.244;2023-07-13T12:29:49;14.00;;;8.43;;
59458;SDS011;45269;43.568;22.244;2023-07-13T12:32:17;12.38;;;9.13;;
59458;SDS011;45269;43.568;22.244;2023-07-13T12:34:56;13.77;;;8.50;;
59458;SDS011;45269;43.568;22.244;2023-07-13T12:37:22;11.35;;;8.60;;
59458;SDS011;45269;43.568;22.244;2023-07-13T12:39:47;11.95;;;8.77;;
59458;SDS011;45269;43.568;22.244;2023-07-13T12:44:42;14.85;;;9.13;;
59458;SDS011;45269;43.568;22.244;2023-07-13T12:47:14;11.55;;;8.70;;
59458;SDS011;45269;43.568;22.244;2023-07-13T12:49:53;12.00;;;8.75;;
59458;SDS011;45269;43.568;22.244;2023-07-13T12:52:22;12.15;;;9.02;;
59458;SDS011;45269;43.568;22.244;2023-07-13T12:58:03;10.55;;;8.18;;
59458;SDS011;45269;43.568;22.244;2023-07-13T13:01:11;11.77;;;8.57;;
59458;SDS011;45269;43.568;22.244;2023-07-13T13:03:35;11.13;;;8.23;;
59458;SDS011;45269;43.568;22.244;2023-07-13T13:06:06;14.73;;;9.02;;
59458;SDS011;45269;43.568;22.244;2023-07-13T13:08:35;12.63;;;7.82;;
59458;SDS011;45269;43.568;22.244;2023-07-13T13:11:01;12.38;;;8.82;;
59458;SDS011;45269;43.568;22.244;2023-07-13T13:13:26;13.10;;;8.15;;
59458;SDS011;45269;43.568;22.244;2023-07-13T13:15:52;12.00;;;8.35;;
59458;SDS011;45269;43.568;22.244;2023-07-13T13:18:19;10.10;;;8.05;;
59458;SDS011;45269;43.568;22.244;2023-07-13T13:20:44;10.52;;;7.70;;
59458;SDS011;45269;43.568;22.244;2023-07-13T13:23:12;15.60;;;8.45;;
59458;SDS011;45269;43.568;22.244;2023-07-13T13:25:37;9.27;;;7.68;;
59458;SDS011;45269;43.568;22.244;2023-07-13T13:28:03;12.70;;;8.32;;
59458;SDS011;45269;43.568;22.244;2023-07-13T13:30:28;11.88;;;8.18;;
59458;SDS011;45269;43.568;22.244;2023-07-13T13:32:53;16.10;;;8.57;;
59458;SDS011;45269;43.568;22.244;2023-07-13T13:35:19;14.40;;;8.15;;
59458;SDS011;45269;43.568;22.244;2023-07-13T13:37:46;13.23;;;8.10;;
59458;SDS011;45269;43.568;22.244;2023-07-13T13:40:19;9.27;;;7.70;;
59458;SDS011;45269;43.568;22.244;2023-07-13T13:42:45;9.25;;;7.75;;
59458;SDS011;45269;43.568;22.244;2023-07-13T13:45:10;11.40;;;7.70;;
59458;SDS011;45269;43.568;22.244;2023-07-13T13:47:37;11.75;;;7.75;;
59458;SDS011;45269;43.568;22.244;2023-07-13T13:50:16;13.07;;;8.40;;
59458;SDS011;45269;43.568;22.244;2023-07-13T13:52:42;8.20;;;7.30;;
59458;SDS011;45269;43.568;22.244;2023-07-13T13:55:11;15.57;;;8.77;;
59458;SDS011;45269;43.568;22.244;2023-07-13T13:57:37;9.82;;;8.00;;
59458;SDS011;45269;43.568;22.244;2023-07-13T14:00:02;17.30;;;8.38;;
59458;SDS011;45269;43.568;22.244;2023-07-13T14:02:28;9.40;;;7.60;;
59458;SDS011;45269;43.568;22.244;2023-07-13T14:04:59;11.00;;;7.65;;
59458;SDS011;45269;43.568;22.244;2023-07-13T14:07:25;10.15;;;7.80;;
59458;SDS011;45269;43.568;22.244;2023-07-13T14:09:52;11.23;;;8.00;;
59458;SDS011;45269;43.568;22.244;2023-07-13T14:12:17;13.15;;;8.63;;
59458;SDS011;45269;43.568;22.244;2023-07-13T14:14:43;14.05;;;7.57;;
59458;SDS011;45269;43.568;22.244;2023-07-13T14:17:16;16.88;;;8.50;;
59458;SDS011;45269;43.568;22.244;2023-07-13T14:19:43;9.68;;;7.75;;
59458;SDS011;45269;43.568;22.244;2023-07-13T14:22:08;11.00;;;7.60;;
59458;SDS011;45269;43.568;22.244;2023-07-13T14:24:33;11.38;;;7.65;;
59458;SDS011;45269;43.568;22.244;2023-07-13T14:26:59;9.32;;;7.50;;
59458;SDS011;45269;43.568;22.244;2023-07-13T14:29:24;11.63;;;8.32;;
59458;SDS011;45269;43.568;22.244;2023-07-13T14:31:51;10.60;;;7.63;;
59458;SDS011;45269;43.568;22.244;2023-07-13T14:34:17;12.68;;;8.00;;
59458;SDS011;45269;43.568;22.244;2023-07-13T14:36:43;9.77;;;8.40;;
59458;SDS011;45269;43.568;22.244;2023-07-13T14:39:14;9.07;;;7.90;;
59458;SDS011;45269;43.568;22.244;2023-07-13T14:41:39;9.60;;;7.60;;
59458;SDS011;45269;43.568;22.244;2023-07-13T14:44:12;9.00;;;8.10;;
59458;SDS011;45269;43.568;22.244;2023-07-13T14:46:38;12.63;;;7.80;;
59458;SDS011;45269;43.568;22.244;2023-07-13T14:49:45;16.88;;;8.68;;
59458;SDS011;45269;43.568;22.244;2023-07-13T14:51:52;8.23;;;7.13;;
59458;SDS011;45269;43.568;22.244;2023-07-13T14:54:17;9.75;;;7.28;;
59458;SDS011;45269;43.568;22.244;2023-07-13T14:56:42;10.52;;;7.05;;
59458;SDS011;45269;43.568;22.244;2023-07-13T14:59:08;10.00;;;7.55;;
59458;SDS011;45269;43.568;22.244;2023-07-13T15:01:34;12.77;;;7.32;;
59458;SDS011;45269;43.568;22.244;2023-07-13T15:03:59;12.55;;;7.47;;
59458;SDS011;45269;43.568;22.244;2023-07-13T15:06:25;13.27;;;7.80;;
59458;SDS011;45269;43.568;22.244;2023-07-13T15:08:50;13.57;;;8.50;;
59458;SDS011;45269;43.568;22.244;2023-07-13T15:11:16;14.55;;;8.23;;